A- A+ FrançaisEnglishEspañol中国

Services sur Internet Soldes sur Internet Des idées de cadeaux Météo Météo aéro

La météo à : Autours de vous Tarbes-Lourdes-PyrénéesCarcassone-SalvazaNimes-Courbessac Toulouse-Blagnac

La météo aéronautique pour les pilotes, la préparation du vol avec les METAR (METeorological Aerodrome Report, message d'observation des conditions météorologiques pour l'aviation) et Les TAF (Terminal Aerodrome Forecast : message de prévision à court terme des conditions météorologiques pour l'aviation). Et les autres ressources comme les VAC (Visual Approch Chart) et les NOTAM (Notice To Airman) pour préprer les vols.

Aéroport Waskaganish (Canada) / OACI CYKQ/ IATA YKQ

L'altitude de l'aéroport Waskaganish est de 24 m = 79 ft. Il est situé à proximité de Waskaganish (Canada). La météo générale à 5 jours est disponible pour Eastmain situé à 88.8 km.

METAR de l'aéroport Waskaganish - CYKQ

CYKQ 031900Z 01004KT 280V040 15SM BKN056 BKN210 OVC250 14/04 A2995 RMK SC5CC2CI1 SLP145

Décodage du METAR de l'aéroport Waskaganish (CA)

METAR émis par CYKQ le mardi 3 septembre 2019 à 19:00 heure TU. Attention ce METAR est obsolète car il a été émis il y a 2 heure et 15 minutes.

La visibilité est de 24.1 km = 15 sm.

La température est de 14°C = 57 °F et le point rosée est de 4°C = 39 °F . Ce qui correspond à 51% d'humidité relative.

Le QNH est de 1014 hPa = 29.94 inHg

Vent de 4 kt = 7 km/h, orienté à 10°.

Nuages : Couverture nuageuse fragmentée à 5600 ft = 1710 mètres. Couverture nuageuse fragmentée à 21000 ft = 6400 mètres. Couverture nuageuse soudée à 25000 ft = 7620 mètres.

RMK SC5CC2CI1 SLP145

TAF de l'aéroport Waskaganish - CYKQ

CYKQ 031438Z 0315/0321 23007KT P6SM FEW050 SCT200 RMK NXT FCST WILL BE ISSUED AT 041445Z

CYKQ 031438Z 0315/0321 23007KT P6SM quelques nuages à 050 nuages épars à 200 remarques NXT trombe ST WILL BE ISSUED AT 041445Z

Aéroport à proximité de Waskaganish

Météo générale à 5 jours à Eastmain (88.8 km)Aéroport Eastmain River (85 km)Aéroport Moosonee (130 km)Aéroport Wemindji (171 km)Aéroport Nemiscau (183 km)Aéroport Matagami (202 km)Aéroport Fort Albany (218 km)

VAC de l'aéroport Waskaganish - CYKQ

La carte d'approche à vue (VAC Visual Approah Chart) est fournie sans aucune garantie de son actualité. Le pilote est le seul responsable de la vérification de sa validité avant de l'utiliser opérationnellement pour préparer un vol ou l'utiliser lors de sa navigation.

VAC de CYKQ

Vue aérienne de l'aéroport Waskaganish

NOTAM de l'aéroport Waskaganish

Les NOTAM sont fournis sans aucune garantie de leur actualité. Le pilote est le seul responsable de la vérification de sa validité avant de l'utiliser opérationnellement pour préparer un vol ou l'utiliser lors de sa navigation.

Pas de NOTAM

Sources des données